createdAt,value
2019-01-04T00:00:28.869Z,5.10
2019-01-04T00:02:58.136Z,5.10
2019-01-04T00:05:27.433Z,5.10
2019-01-04T00:07:56.708Z,5.00
2019-01-04T00:10:26.005Z,5.00
2019-01-04T00:12:55.395Z,4.90
2019-01-04T00:15:24.634Z,4.90
2019-01-04T00:17:53.952Z,4.80
2019-01-04T00:20:23.187Z,4.80
2019-01-04T00:22:52.438Z,4.70
2019-01-04T00:25:21.679Z,4.60
2019-01-04T00:27:51.017Z,4.60
2019-01-04T00:30:20.412Z,4.50
2019-01-04T00:32:49.725Z,4.50
2019-01-04T00:35:19.028Z,4.50
2019-01-04T00:37:48.271Z,4.50
2019-01-04T00:40:17.663Z,4.50
2019-01-04T00:42:46.921Z,4.50
2019-01-04T00:45:16.282Z,4.50
2019-01-04T00:47:45.622Z,4.60
2019-01-04T00:50:14.946Z,4.50
2019-01-04T00:52:44.238Z,4.40
2019-01-04T00:55:16.581Z,4.40
2019-01-04T00:57:54.871Z,4.30
2019-01-04T01:00:47.933Z,4.20
2019-01-04T01:03:22.936Z,4.30
2019-01-04T01:06:13.180Z,4.20
2019-01-04T01:08:51.155Z,4.30
2019-01-04T01:11:38.123Z,4.40
2019-01-04T01:14:43.462Z,4.40
2019-01-04T01:17:40.835Z,4.50
2019-01-04T01:20:16.011Z,4.30
2019-01-04T01:23:22.548Z,4.30
2019-01-04T01:26:27.586Z,4.40
2019-01-04T01:29:14.823Z,4.50
2019-01-04T01:31:55.703Z,4.50
2019-01-04T01:34:51.683Z,4.60
2019-01-04T01:37:55.389Z,4.50
2019-01-04T01:40:53.128Z,4.50
2019-01-04T01:43:33.638Z,4.40
2019-01-04T01:46:17.700Z,4.30
2019-01-04T01:48:50.015Z,4.30
2019-01-04T01:51:25.108Z,4.30
2019-01-04T01:53:54.336Z,4.30
2019-01-04T01:56:23.600Z,4.30
2019-01-04T01:58:52.897Z,4.30
2019-01-04T02:01:22.246Z,4.30
2019-01-04T02:03:51.469Z,4.20
2019-01-04T02:06:20.767Z,4.20
2019-01-04T02:08:50.023Z,4.10
2019-01-04T02:11:19.266Z,4.00
2019-01-04T02:13:48.515Z,3.90
2019-01-04T02:16:17.750Z,3.80
2019-01-04T02:18:47.003Z,3.80
2019-01-04T02:21:16.237Z,3.70
2019-01-04T02:23:45.491Z,3.80
2019-01-04T02:26:14.714Z,3.80
2019-01-04T02:28:43.959Z,3.80
2019-01-04T02:31:13.199Z,3.90
2019-01-04T02:33:42.434Z,3.90
2019-01-04T02:36:11.693Z,4.00
2019-01-04T02:38:40.934Z,3.90
2019-01-04T02:41:10.172Z,3.90
2019-01-04T02:43:39.404Z,3.80
2019-01-04T02:46:08.643Z,3.70
2019-01-04T02:48:37.900Z,3.60
2019-01-04T02:51:07.191Z,3.70
2019-01-04T02:53:36.430Z,3.80
2019-01-04T02:56:05.713Z,3.80
2019-01-04T02:58:34.931Z,3.80
2019-01-04T03:01:04.250Z,3.80
2019-01-04T03:03:33.522Z,3.70
2019-01-04T03:06:02.831Z,3.90
2019-01-04T03:08:32.068Z,4.00
2019-01-04T03:11:01.331Z,4.10
2019-01-04T03:13:30.554Z,4.00
2019-01-04T03:15:59.849Z,4.20
2019-01-04T03:18:29.227Z,4.10
2019-01-04T03:20:58.552Z,4.10
2019-01-04T03:23:27.817Z,4.20
2019-01-04T03:25:57.204Z,4.10
2019-01-04T03:28:26.455Z,4.10
2019-01-04T03:30:55.705Z,4.10
2019-01-04T03:33:24.970Z,4.10
2019-01-04T03:35:54.212Z,4.00
2019-01-04T03:38:23.442Z,3.90
2019-01-04T03:40:52.686Z,4.00
2019-01-04T03:43:21.934Z,4.20
2019-01-04T03:45:51.176Z,4.20
2019-01-04T03:48:20.433Z,4.30
2019-01-04T03:50:49.808Z,4.20
2019-01-04T03:53:19.071Z,4.20
2019-01-04T03:55:48.370Z,3.90
2019-01-04T03:58:17.638Z,3.80
2019-01-04T04:00:46.879Z,3.80
2019-01-04T04:03:16.176Z,3.70
2019-01-04T04:05:45.505Z,3.60
2019-01-04T04:08:14.742Z,3.70
2019-01-04T04:10:43.994Z,3.80
2019-01-04T04:13:13.229Z,3.80
2019-01-04T04:15:42.504Z,3.90
2019-01-04T04:18:11.729Z,4.10
2019-01-04T04:20:40.994Z,4.10
2019-01-04T04:23:10.234Z,4.20
2019-01-04T04:25:39.473Z,4.20
2019-01-04T04:28:08.737Z,4.20
2019-01-04T04:30:37.975Z,4.10
2019-01-04T04:33:07.235Z,4.10
2019-01-04T04:35:36.484Z,3.90
2019-01-04T04:38:05.743Z,4.00
2019-01-04T04:40:35.004Z,4.00
2019-01-04T04:43:04.293Z,4.10
2019-01-04T04:45:33.531Z,4.10
2019-01-04T04:48:02.784Z,4.20
2019-01-04T04:50:32.037Z,4.20
2019-01-04T04:53:01.264Z,4.20
2019-01-04T04:55:30.528Z,4.20
2019-01-04T04:57:59.762Z,4.20
2019-01-04T05:00:28.987Z,4.20
2019-01-04T05:02:58.332Z,4.20
2019-01-04T05:05:27.567Z,4.10
2019-01-04T05:07:56.855Z,4.00
2019-01-04T05:10:26.069Z,3.90
2019-01-04T05:12:55.322Z,3.90
2019-01-04T05:15:24.554Z,3.90
2019-01-04T05:17:53.812Z,4.10
2019-01-04T05:20:23.057Z,4.10
2019-01-04T05:22:52.339Z,4.00
2019-01-04T05:25:21.622Z,4.10
2019-01-04T05:27:50.869Z,4.10
2019-01-04T05:30:20.122Z,4.10
2019-01-04T05:32:49.361Z,4.00
2019-01-04T05:35:18.624Z,4.10
2019-01-04T05:37:47.948Z,4.30
2019-01-04T05:40:17.180Z,4.30
2019-01-04T05:42:46.451Z,4.30
2019-01-04T05:45:15.674Z,4.40
2019-01-04T05:47:44.932Z,4.40
2019-01-04T05:50:14.245Z,4.50
2019-01-04T05:52:43.551Z,4.50
2019-01-04T05:55:12.787Z,4.40
2019-01-04T05:57:42.043Z,4.40
2019-01-04T06:00:11.452Z,4.40
2019-01-04T06:02:40.743Z,4.40
2019-01-04T06:05:09.974Z,4.50
2019-01-04T06:07:39.278Z,4.60
2019-01-04T06:10:08.573Z,4.60
2019-01-04T06:12:37.832Z,4.60
2019-01-04T06:15:07.331Z,4.70
2019-01-04T06:17:36.594Z,4.80
2019-01-04T06:20:06.779Z,4.80
2019-01-04T06:22:36.019Z,4.80
2019-01-04T06:25:06.396Z,4.80
2019-01-04T06:27:35.659Z,4.60
2019-01-04T06:30:07.140Z,4.50
2019-01-04T06:32:36.421Z,4.40
2019-01-04T06:35:05.821Z,4.40
2019-01-04T06:37:35.055Z,4.40
2019-01-04T06:40:06.710Z,4.40
2019-01-04T06:42:35.963Z,4.30
2019-01-04T06:45:06.931Z,4.30
2019-01-04T06:47:36.828Z,4.40
2019-01-04T06:50:08.391Z,4.50
2019-01-04T06:52:37.642Z,4.50
2019-01-04T06:55:21.839Z,4.40
2019-01-04T06:57:51.078Z,4.40
2019-01-04T07:00:20.399Z,4.50
2019-01-04T07:02:49.655Z,4.50
2019-01-04T07:05:18.905Z,4.60
2019-01-04T07:07:48.170Z,4.70
2019-01-04T07:10:17.434Z,4.60
2019-01-04T07:12:46.754Z,4.40
2019-01-04T07:15:16.071Z,4.40
2019-01-04T07:17:45.327Z,4.40
2019-01-04T07:20:15.159Z,4.50
2019-01-04T07:22:44.391Z,4.40
2019-01-04T07:25:13.964Z,4.40
2019-01-04T07:27:43.224Z,4.40
2019-01-04T07:30:12.520Z,4.30
2019-01-04T07:32:41.769Z,4.30
2019-01-04T07:35:11.019Z,4.30
2019-01-04T07:37:40.262Z,4.30
2019-01-04T07:40:10.153Z,4.30
2019-01-04T07:42:39.428Z,4.20
2019-01-04T07:45:09.763Z,4.10
2019-01-04T07:47:39.090Z,4.10
2019-01-04T07:50:08.481Z,4.10
2019-01-04T07:52:37.707Z,4.00
2019-01-04T07:55:08.219Z,4.00
2019-01-04T07:57:37.488Z,4.00
2019-01-04T08:00:12.879Z,4.10
2019-01-04T08:02:43.365Z,4.20
2019-01-04T08:05:17.752Z,4.20
2019-01-04T08:07:47.081Z,4.10
2019-01-04T08:10:16.324Z,4.00
2019-01-04T08:12:45.706Z,4.00
2019-01-04T08:15:15.080Z,4.00
2019-01-04T08:17:44.379Z,4.10
2019-01-04T08:20:13.636Z,4.20
2019-01-04T08:22:42.867Z,4.20
2019-01-04T08:25:12.290Z,4.30
2019-01-04T08:27:41.612Z,4.30
2019-01-04T08:30:11.828Z,4.30
2019-01-04T08:32:41.056Z,4.30
2019-01-04T08:35:10.399Z,4.30
2019-01-04T08:37:39.631Z,4.30
2019-01-04T08:40:10.709Z,4.30
2019-01-04T08:42:40.036Z,4.40
2019-01-04T08:45:09.542Z,4.40
2019-01-04T08:47:38.819Z,4.50
2019-01-04T08:50:08.791Z,4.70
2019-01-04T08:52:38.118Z,4.70
2019-01-04T08:55:09.007Z,4.60
2019-01-04T08:57:38.260Z,4.70
2019-01-04T09:00:10.811Z,4.70
2019-01-04T09:02:40.211Z,4.80
2019-01-04T09:05:09.532Z,4.80
2019-01-04T09:07:38.832Z,4.80
2019-01-04T09:10:08.323Z,4.80
2019-01-04T09:12:37.563Z,4.90
2019-01-04T09:15:08.063Z,4.90
2019-01-04T09:17:37.319Z,5.00
2019-01-04T09:20:08.712Z,5.00
2019-01-04T09:22:38.090Z,4.90
2019-01-04T09:25:08.442Z,5.00
2019-01-04T09:27:38.881Z,5.10
2019-01-04T09:30:10.698Z,5.10
2019-01-04T09:32:40.050Z,5.10
2019-01-04T09:35:09.361Z,5.10
2019-01-04T09:37:38.671Z,5.10
2019-01-04T09:40:09.202Z,5.20
2019-01-04T09:42:38.478Z,5.30
2019-01-04T09:45:08.854Z,5.30
2019-01-04T09:47:38.172Z,5.30
2019-01-04T09:50:08.283Z,5.40
2019-01-04T09:52:37.510Z,5.40
2019-01-04T09:55:07.043Z,5.50
2019-01-04T09:57:36.288Z,5.50
2019-01-04T10:00:08.881Z,5.60
2019-01-04T10:02:38.203Z,5.60
2019-01-04T10:05:08.397Z,5.70
2019-01-04T10:07:37.658Z,5.70
2019-01-04T10:10:08.842Z,5.80
2019-01-04T10:12:38.345Z,5.90
2019-01-04T10:15:11.924Z,6.00
2019-01-04T10:17:41.196Z,6.00
2019-01-04T10:20:11.179Z,5.90
2019-01-04T10:22:40.425Z,5.70
2019-01-04T10:25:09.903Z,5.70
2019-01-04T10:27:39.197Z,5.80
2019-01-04T10:30:09.048Z,5.80
2019-01-04T10:32:38.307Z,5.70
2019-01-04T10:35:10.683Z,5.70
2019-01-04T10:37:38.776Z,5.70
2019-01-04T10:40:11.150Z,5.70
2019-01-04T10:42:39.107Z,5.80
2019-01-04T10:45:08.524Z,5.70
2019-01-04T10:47:37.886Z,5.70
2019-01-04T10:50:07.149Z,5.60
2019-01-04T10:52:36.452Z,5.60
2019-01-04T10:55:05.958Z,5.80
2019-01-04T10:57:35.206Z,5.80
2019-01-04T11:00:10.204Z,5.90
2019-01-04T11:02:39.549Z,5.90
2019-01-04T11:05:09.230Z,5.90
2019-01-04T11:07:38.483Z,5.90
2019-01-04T11:10:12.961Z,5.80
2019-01-04T11:12:42.279Z,5.80
2019-01-04T11:15:11.523Z,5.70
2019-01-04T11:17:40.828Z,5.60
2019-01-04T11:20:38.537Z,5.60
2019-01-04T11:23:10.913Z,5.50
2019-01-04T11:26:07.032Z,5.50
2019-01-04T11:28:39.351Z,5.50
2019-01-04T11:31:30.381Z,5.40
2019-01-04T11:34:31.254Z,5.30
2019-01-04T11:37:35.102Z,5.30
2019-01-04T11:40:13.331Z,5.40
2019-01-04T11:43:00.520Z,5.50
2019-01-04T11:45:35.891Z,5.40
2019-01-04T11:48:11.108Z,5.50
2019-01-04T11:51:07.540Z,5.50
2019-01-04T11:53:36.795Z,5.60
2019-01-04T11:56:06.268Z,5.60
2019-01-04T11:58:35.539Z,5.60
2019-01-04T12:01:04.853Z,5.60
2019-01-04T12:03:34.129Z,5.40
2019-01-04T12:06:03.451Z,5.30
2019-01-04T12:08:32.713Z,5.30
2019-01-04T12:11:03.259Z,5.40
2019-01-04T12:13:32.499Z,5.40
2019-01-04T12:16:01.747Z,5.30
2019-01-04T12:18:31.021Z,5.30
2019-01-04T12:21:00.274Z,5.30
2019-01-04T12:23:29.685Z,5.30
2019-01-04T12:25:59.006Z,5.30
2019-01-04T12:28:28.255Z,5.30
2019-01-04T12:30:57.517Z,5.20
2019-01-04T12:33:26.757Z,5.20
2019-01-04T12:35:56.075Z,5.20
2019-01-04T12:38:25.341Z,5.30
2019-01-04T12:40:54.575Z,5.30
2019-01-04T12:43:23.874Z,5.30
2019-01-04T12:45:53.194Z,5.20
2019-01-04T12:48:22.434Z,5.00
2019-01-04T12:50:51.700Z,5.00
2019-01-04T12:53:20.937Z,4.90
2019-01-04T12:55:50.230Z,4.90
2019-01-04T12:58:19.489Z,5.00
2019-01-04T13:00:48.755Z,5.00
2019-01-04T13:03:18.072Z,5.10
2019-01-04T13:05:47.315Z,5.00
2019-01-04T13:08:16.771Z,5.00
2019-01-04T13:10:46.072Z,5.00
2019-01-04T13:13:15.362Z,5.00
2019-01-04T13:15:44.668Z,5.10
2019-01-04T13:18:13.989Z,5.00
2019-01-04T13:20:43.236Z,4.90
2019-01-04T13:23:12.498Z,5.00
2019-01-04T13:25:41.754Z,5.00
2019-01-04T13:28:11.074Z,4.90
2019-01-04T13:30:43.396Z,4.90
2019-01-04T13:33:12.643Z,4.90
2019-01-04T13:35:42.039Z,4.90
2019-01-04T13:38:11.270Z,4.90
2019-01-04T13:40:40.521Z,5.00
2019-01-04T13:43:09.780Z,5.10
2019-01-04T13:45:39.101Z,5.00
2019-01-04T13:48:08.364Z,5.10
2019-01-04T13:50:37.635Z,5.10
2019-01-04T13:53:06.891Z,5.10
2019-01-04T13:55:36.154Z,5.00
2019-01-04T13:58:05.471Z,5.00
2019-01-04T14:00:34.718Z,4.90
2019-01-04T14:03:04.106Z,4.80
2019-01-04T14:05:33.391Z,4.80
2019-01-04T14:08:02.691Z,4.70
2019-01-04T14:10:31.957Z,4.70
2019-01-04T14:13:02.042Z,4.80
2019-01-04T14:15:31.304Z,4.80
2019-01-04T14:18:00.634Z,4.70
2019-01-04T14:20:29.932Z,4.70
2019-01-04T14:22:59.171Z,4.70
2019-01-04T14:25:28.508Z,4.60
2019-01-04T14:27:57.784Z,4.60
2019-01-04T14:30:27.056Z,4.50
2019-01-04T14:32:56.306Z,4.60
2019-01-04T14:35:25.598Z,4.60
2019-01-04T14:37:54.842Z,4.70
2019-01-04T14:40:24.093Z,4.70
2019-01-04T14:42:53.416Z,4.70
2019-01-04T14:45:22.677Z,4.90
2019-01-04T14:47:51.958Z,4.90
2019-01-04T14:50:21.312Z,4.90
2019-01-04T14:52:50.618Z,5.00
2019-01-04T14:55:19.875Z,5.00
2019-01-04T14:57:49.220Z,5.00
2019-01-04T15:00:18.541Z,5.00
2019-01-04T15:02:47.807Z,5.00
2019-01-04T15:05:17.151Z,5.00
2019-01-04T15:07:46.388Z,4.90
2019-01-04T15:10:15.652Z,4.90
2019-01-04T15:12:44.982Z,4.90
2019-01-04T15:15:14.245Z,4.80
2019-01-04T15:17:43.491Z,4.80
2019-01-04T15:20:12.796Z,4.80
2019-01-04T15:22:42.065Z,4.80
2019-01-04T15:25:11.352Z,4.70
2019-01-04T15:27:40.611Z,4.70
2019-01-04T15:30:10.943Z,4.80
2019-01-04T15:32:40.240Z,4.80
2019-01-04T15:35:10.154Z,4.80
2019-01-04T15:37:39.428Z,4.70
2019-01-04T15:40:08.976Z,4.70
2019-01-04T15:42:38.233Z,4.80
2019-01-04T15:45:08.740Z,4.80
2019-01-04T15:47:37.991Z,4.70
2019-01-04T15:50:08.807Z,4.80
2019-01-04T15:52:38.043Z,4.70
2019-01-04T15:55:07.482Z,4.70
2019-01-04T15:57:36.810Z,4.80
2019-01-04T16:00:09.214Z,4.90
2019-01-04T16:02:38.496Z,4.90
2019-01-04T16:05:09.390Z,5.00
2019-01-04T16:07:38.692Z,4.90
2019-01-04T16:10:09.310Z,5.00
2019-01-04T16:12:38.641Z,5.10
2019-01-04T16:15:09.906Z,5.10
2019-01-04T16:17:39.173Z,5.10
2019-01-04T16:20:10.688Z,5.10
2019-01-04T16:22:40.059Z,5.00
2019-01-04T16:25:09.379Z,5.00
2019-01-04T16:27:38.643Z,5.00
2019-01-04T16:30:10.253Z,4.90
2019-01-04T16:32:39.517Z,4.80
2019-01-04T16:35:08.825Z,4.80
2019-01-04T16:37:38.095Z,4.80
2019-01-04T16:40:08.502Z,4.80
2019-01-04T16:42:37.791Z,4.90
2019-01-04T16:45:07.536Z,4.80
2019-01-04T16:47:36.771Z,4.80
2019-01-04T16:50:06.855Z,4.90
2019-01-04T16:52:36.215Z,4.90
2019-01-04T16:55:07.259Z,4.90
2019-01-04T16:57:36.518Z,4.80
2019-01-04T17:00:09.075Z,4.90
2019-01-04T17:02:38.343Z,4.90
2019-01-04T17:05:07.669Z,5.00
2019-01-04T17:07:36.948Z,5.10
2019-01-04T17:10:06.688Z,5.10
2019-01-04T17:12:35.940Z,5.10
2019-01-04T17:15:06.054Z,5.10
2019-01-04T17:17:35.304Z,5.10
2019-01-04T17:20:05.229Z,5.10
2019-01-04T17:22:34.526Z,5.10
2019-01-04T17:25:04.925Z,5.00
2019-01-04T17:27:34.730Z,5.00
2019-01-04T17:30:07.141Z,5.00
2019-01-04T17:32:36.398Z,5.00
2019-01-04T17:35:06.109Z,5.10
2019-01-04T17:37:35.397Z,5.10
2019-01-04T17:40:07.055Z,5.10
2019-01-04T17:42:37.211Z,5.10
2019-01-04T17:45:07.648Z,5.00
2019-01-04T17:47:36.912Z,5.00
2019-01-04T17:50:07.519Z,5.00
2019-01-04T17:52:36.758Z,5.10
2019-01-04T17:55:06.447Z,5.10
2019-01-04T17:57:35.689Z,5.30
2019-01-04T18:00:07.892Z,5.30
2019-01-04T18:02:37.207Z,5.30
2019-01-04T18:05:06.606Z,5.30
2019-01-04T18:07:36.003Z,5.30
2019-01-04T18:10:07.295Z,5.40
2019-01-04T18:12:36.623Z,5.30
2019-01-04T18:15:06.827Z,5.20
2019-01-04T18:17:36.084Z,5.30
2019-01-04T18:20:10.824Z,5.30
2019-01-04T18:22:38.966Z,5.20
2019-01-04T18:25:08.424Z,5.30
2019-01-04T18:27:37.736Z,5.30
2019-01-04T18:30:08.815Z,5.30
2019-01-04T18:32:38.105Z,5.40
2019-01-04T18:35:07.579Z,5.30
2019-01-04T18:37:36.934Z,5.30
2019-01-04T18:40:08.535Z,5.30
2019-01-04T18:42:37.857Z,5.40
2019-01-04T18:45:07.312Z,5.40
2019-01-04T18:47:39.481Z,5.30
2019-01-04T18:50:09.658Z,5.30
2019-01-04T18:52:38.951Z,5.20
2019-01-04T18:55:08.551Z,5.30
2019-01-04T18:57:37.985Z,5.30
2019-01-04T19:00:09.872Z,5.40
2019-01-04T19:02:39.164Z,5.40
2019-01-04T19:05:08.503Z,5.50
2019-01-04T19:07:37.754Z,5.40
2019-01-04T19:10:08.585Z,5.40
2019-01-04T19:12:37.965Z,5.30
2019-01-04T19:15:09.376Z,5.30
2019-01-04T19:17:38.627Z,5.40
2019-01-04T19:20:08.075Z,5.40
2019-01-04T19:22:37.507Z,5.40
2019-01-04T19:25:06.961Z,5.30
2019-01-04T19:27:36.228Z,5.30
2019-01-04T19:30:07.438Z,5.20
2019-01-04T19:32:36.822Z,5.20
2019-01-04T19:35:06.246Z,5.20
2019-01-04T19:37:35.657Z,5.30
2019-01-04T19:40:05.849Z,5.30
2019-01-04T19:42:35.181Z,5.30
2019-01-04T19:45:05.814Z,5.30
2019-01-04T19:47:35.233Z,5.20
2019-01-04T19:50:18.936Z,5.30
2019-01-04T19:52:48.320Z,5.20
2019-01-04T19:55:17.705Z,5.20
2019-01-04T19:57:47.254Z,5.20
2019-01-04T20:00:16.828Z,5.20
2019-01-04T20:02:46.307Z,5.20
2019-01-04T20:05:20.539Z,5.20
2019-01-04T20:08:15.521Z,5.20
2019-01-04T20:11:20.441Z,5.20
2019-01-04T20:14:16.954Z,5.20
2019-01-04T20:17:06.126Z,5.20
2019-01-04T20:19:48.888Z,5.20
2019-01-04T20:22:25.482Z,5.20
2019-01-04T20:25:14.174Z,5.10
2019-01-04T20:27:45.156Z,5.20
2019-01-04T20:30:18.962Z,5.30
2019-01-04T20:33:06.264Z,5.20
2019-01-04T20:35:37.213Z,5.10
2019-01-04T20:38:23.865Z,5.00
2019-01-04T20:40:54.888Z,5.00
2019-01-04T20:43:40.776Z,5.00
2019-01-04T20:46:11.827Z,5.00
2019-01-04T20:48:54.434Z,5.00
2019-01-04T20:51:41.247Z,5.00
2019-01-04T20:54:12.143Z,5.00
2019-01-04T20:56:48.594Z,4.90
2019-01-04T20:59:35.620Z,5.00
2019-01-04T21:02:12.235Z,5.00
2019-01-04T21:04:49.127Z,5.00
2019-01-04T21:07:25.702Z,5.00
2019-01-04T21:09:59.569Z,5.00
2019-01-04T21:12:36.306Z,5.00
2019-01-04T21:15:07.592Z,4.90
2019-01-04T21:17:38.566Z,4.90
2019-01-04T21:20:21.638Z,4.90
2019-01-04T21:22:55.276Z,4.90
2019-01-04T21:25:31.778Z,5.00
2019-01-04T21:28:02.698Z,5.00
2019-01-04T21:30:42.488Z,4.90
2019-01-04T21:33:22.583Z,4.90
2019-01-04T21:36:11.555Z,4.90
2019-01-04T21:39:00.347Z,5.00
2019-01-04T21:41:47.127Z,5.00
2019-01-04T21:44:30.178Z,4.90
2019-01-04T21:47:01.116Z,4.80
2019-01-04T21:49:34.835Z,4.80
2019-01-04T21:52:05.763Z,4.90
2019-01-04T21:54:42.533Z,4.90
2019-01-04T21:57:29.697Z,5.00
2019-01-04T22:00:06.292Z,5.00
2019-01-04T22:02:49.310Z,5.00
2019-01-04T22:05:29.241Z,5.00
2019-01-04T22:08:00.265Z,5.00
2019-01-04T22:10:45.911Z,5.00
2019-01-04T22:13:25.831Z,5.00
2019-01-04T22:15:56.755Z,5.00
2019-01-04T22:18:27.638Z,5.00
2019-01-04T22:21:10.519Z,4.90
2019-01-04T22:23:57.679Z,5.00
2019-01-04T22:26:34.308Z,4.90
2019-01-04T22:29:22.907Z,4.90
2019-01-04T22:32:11.389Z,5.00
2019-01-04T22:34:58.557Z,4.90
2019-01-04T22:37:32.150Z,4.90
2019-01-04T22:40:19.424Z,4.90
2019-01-04T22:42:50.364Z,4.90
2019-01-04T22:45:21.253Z,4.80
2019-01-04T22:47:52.157Z,4.90
2019-01-04T22:50:39.167Z,4.80
2019-01-04T22:53:12.515Z,4.90
2019-01-04T22:55:55.116Z,5.00
2019-01-04T22:58:35.077Z,5.00
2019-01-04T23:01:22.578Z,5.00
2019-01-04T23:04:09.782Z,5.00
2019-01-04T23:06:55.446Z,5.00
2019-01-04T23:09:42.353Z,4.90
2019-01-04T23:12:16.323Z,5.00
2019-01-04T23:15:03.139Z,5.00
2019-01-04T23:17:34.050Z,5.00
2019-01-04T23:20:08.774Z,5.10
2019-01-04T23:22:58.048Z,5.00
2019-01-04T23:25:31.965Z,5.00
2019-01-04T23:28:19.014Z,5.00
2019-01-04T23:30:58.762Z,5.00
2019-01-04T23:33:29.737Z,5.10
2019-01-04T23:36:09.447Z,5.10
2019-01-04T23:38:58.436Z,5.10
2019-01-04T23:41:41.026Z,5.10
2019-01-04T23:44:11.960Z,5.10
2019-01-04T23:46:51.967Z,5.10
2019-01-04T23:49:25.430Z,5.20
2019-01-04T23:52:02.406Z,5.20
2019-01-04T23:54:39.338Z,5.20
2019-01-04T23:57:26.324Z,5.20
2019-01-04T23:59:57.177Z,5.20
